createdAt,value
2023-05-17T00:01:08.859Z,3.47
2023-05-17T00:03:36.579Z,2.97
2023-05-17T00:06:04.231Z,3.65
2023-05-17T00:08:31.833Z,4.32
2023-05-17T00:10:59.356Z,4.28
2023-05-17T00:13:26.925Z,5.55
2023-05-17T00:15:54.416Z,3.63
2023-05-17T00:18:21.828Z,3.53
2023-05-17T00:20:49.312Z,3.97
2023-05-17T00:23:16.828Z,3.92
2023-05-17T00:25:44.355Z,5.40
2023-05-17T00:28:12.255Z,4.05
2023-05-17T00:30:39.775Z,4.35
2023-05-17T00:33:07.332Z,3.35
2023-05-17T00:35:35.039Z,3.40
2023-05-17T00:38:02.588Z,4.30
2023-05-17T00:40:31.333Z,3.90
2023-05-17T00:42:58.831Z,12.43
2023-05-17T00:45:26.413Z,6.13
2023-05-17T00:47:53.965Z,7.03
2023-05-17T00:50:21.665Z,4.68
2023-05-17T00:52:50.724Z,4.00
2023-05-17T00:55:19.284Z,3.58
2023-05-17T00:57:47.118Z,4.18
2023-05-17T01:00:15.249Z,3.00
2023-05-17T01:02:44.059Z,2.95
2023-05-17T01:05:11.526Z,3.65
2023-05-17T01:07:39.678Z,4.05
2023-05-17T01:10:09.211Z,4.55
2023-05-17T01:13:14.120Z,3.97
2023-05-17T01:15:50.353Z,3.85
2023-05-17T01:18:48.304Z,3.45
2023-05-17T01:22:00.516Z,4.63
2023-05-17T01:25:26.360Z,5.95
2023-05-17T01:27:59.207Z,3.70
2023-05-17T01:30:28.083Z,4.32
2023-05-17T01:32:58.570Z,4.13
2023-05-17T01:35:27.024Z,4.03
2023-05-17T01:37:55.012Z,3.53
2023-05-17T01:40:23.675Z,5.63
2023-05-17T01:43:04.555Z,4.50
2023-05-17T01:46:11.252Z,9.68
2023-05-17T01:48:49.445Z,6.55
2023-05-17T01:51:20.444Z,6.72
2023-05-17T01:53:59.955Z,9.32
2023-05-17T01:56:33.805Z,7.53
2023-05-17T01:59:06.037Z,8.73
2023-05-17T02:01:34.529Z,6.13
2023-05-17T02:04:02.807Z,9.38
2023-05-17T02:06:32.746Z,9.38
2023-05-17T02:09:02.207Z,8.93
2023-05-17T02:11:30.046Z,9.10
2023-05-17T02:13:58.310Z,9.73
2023-05-17T02:16:26.448Z,10.10
2023-05-17T02:18:53.953Z,6.45
2023-05-17T02:21:21.505Z,4.88
2023-05-17T02:23:48.988Z,4.53
2023-05-17T02:26:19.838Z,4.20
2023-05-17T02:28:47.188Z,3.85
2023-05-17T02:31:14.733Z,4.53
2023-05-17T02:33:42.437Z,4.18
2023-05-17T02:36:10.478Z,4.38
2023-05-17T02:41:06.690Z,3.30
2023-05-17T02:43:34.270Z,5.15
2023-05-17T02:46:02.015Z,3.53
2023-05-17T02:48:29.569Z,4.65
2023-05-17T02:50:57.012Z,4.40
2023-05-17T02:53:24.877Z,4.45
2023-05-17T02:55:52.414Z,3.92
2023-05-17T02:58:20.086Z,3.17
2023-05-17T03:00:47.673Z,3.70
2023-05-17T03:03:16.589Z,4.68
2023-05-17T03:05:44.042Z,5.00
2023-05-17T03:08:11.626Z,4.85
2023-05-17T03:10:39.584Z,3.40
2023-05-17T03:13:08.764Z,5.85
2023-05-17T03:15:39.407Z,3.72
2023-05-17T03:18:06.984Z,4.32
2023-05-17T03:20:36.439Z,4.03
2023-05-17T03:23:04.036Z,2.95
2023-05-17T03:25:31.570Z,4.03
2023-05-17T03:27:59.277Z,5.35
2023-05-17T03:30:26.927Z,4.82
2023-05-17T03:32:55.102Z,4.35
2023-05-17T03:35:23.028Z,3.97
2023-05-17T03:37:54.762Z,3.63
2023-05-17T03:40:22.505Z,4.30
2023-05-17T03:42:50.916Z,3.58
2023-05-17T03:45:19.742Z,4.00
2023-05-17T03:47:47.362Z,3.42
2023-05-17T03:50:15.410Z,4.65
2023-05-17T03:52:42.947Z,3.40
2023-05-17T03:55:10.505Z,4.32
2023-05-17T03:57:38.180Z,4.53
2023-05-17T04:00:09.996Z,3.78
2023-05-17T04:02:42.033Z,4.18
2023-05-17T04:05:12.487Z,3.22
2023-05-17T04:07:41.542Z,5.47
2023-05-17T04:10:10.333Z,4.65
2023-05-17T04:12:38.080Z,4.80
2023-05-17T04:15:06.617Z,6.32
2023-05-17T04:17:34.470Z,6.38
2023-05-17T04:20:05.773Z,4.95
2023-05-17T04:22:35.118Z,3.95
2023-05-17T04:25:02.772Z,4.78
2023-05-17T04:27:30.344Z,4.32
2023-05-17T04:29:58.022Z,3.92
2023-05-17T04:32:25.694Z,4.70
2023-05-17T04:34:53.327Z,3.92
2023-05-17T04:37:21.087Z,3.38
2023-05-17T04:39:52.370Z,3.25
2023-05-17T04:42:20.887Z,3.63
2023-05-17T04:44:53.891Z,3.65
2023-05-17T04:47:21.660Z,3.03
2023-05-17T04:49:50.896Z,3.88
2023-05-17T04:52:18.486Z,5.45
2023-05-17T04:54:47.142Z,5.22
2023-05-17T04:57:14.927Z,5.18
2023-05-17T04:59:56.278Z,5.75
2023-05-17T05:02:24.233Z,4.35
2023-05-17T05:04:52.032Z,5.25
2023-05-17T05:07:20.258Z,4.05
2023-05-17T05:09:48.854Z,5.07
2023-05-17T05:12:18.384Z,5.18
2023-05-17T05:14:45.832Z,5.15
2023-05-17T05:17:13.835Z,5.50
2023-05-17T05:19:42.657Z,6.72
2023-05-17T05:22:10.806Z,6.18
2023-05-17T05:24:39.813Z,5.75
2023-05-17T05:27:08.092Z,6.40
2023-05-17T05:29:37.354Z,5.97
2023-05-17T05:32:05.510Z,5.97
2023-05-17T05:34:39.363Z,5.28
2023-05-17T05:37:06.945Z,5.55
2023-05-17T05:39:34.821Z,5.93
2023-05-17T05:42:03.649Z,5.13
2023-05-17T05:44:31.746Z,4.03
2023-05-17T05:46:59.395Z,5.03
2023-05-17T05:49:27.456Z,4.82
2023-05-17T05:51:55.565Z,5.78
2023-05-17T05:54:23.691Z,5.70
2023-05-17T05:56:54.005Z,3.83
2023-05-17T05:59:21.620Z,4.75
2023-05-17T06:01:49.252Z,5.50
2023-05-17T06:04:16.814Z,4.97
2023-05-17T06:06:44.476Z,4.40
2023-05-17T06:09:12.318Z,4.78
2023-05-17T06:11:39.891Z,4.65
2023-05-17T06:14:07.776Z,4.40
2023-05-17T06:16:35.337Z,3.40
2023-05-17T06:19:03.585Z,3.75
2023-05-17T06:21:31.299Z,4.93
2023-05-17T06:23:58.769Z,4.70
2023-05-17T06:26:26.949Z,5.57
2023-05-17T06:28:54.499Z,5.47
2023-05-17T06:31:21.998Z,5.47
2023-05-17T06:33:49.747Z,4.55
2023-05-17T06:36:17.252Z,4.93
2023-05-17T06:38:44.881Z,5.13
2023-05-17T06:41:12.722Z,3.80
2023-05-17T06:43:40.184Z,3.75
2023-05-17T06:46:07.610Z,3.80
2023-05-17T06:48:35.256Z,4.90
2023-05-17T06:51:03.042Z,4.30
2023-05-17T06:53:30.719Z,3.25
2023-05-17T06:55:58.451Z,4.30
2023-05-17T06:58:26.266Z,4.18
2023-05-17T07:00:53.858Z,3.97
2023-05-17T07:03:21.474Z,4.15
2023-05-17T07:05:48.890Z,2.78
2023-05-17T07:08:16.347Z,4.95
2023-05-17T07:10:44.107Z,3.85
2023-05-17T07:13:11.664Z,3.05
2023-05-17T07:15:39.203Z,3.15
2023-05-17T07:18:07.074Z,5.00
2023-05-17T07:20:34.661Z,4.45
2023-05-17T07:23:02.215Z,3.97
2023-05-17T07:25:31.218Z,4.03
2023-05-17T07:30:26.334Z,3.63
2023-05-17T07:32:55.999Z,3.05
2023-05-17T07:35:23.750Z,3.95
2023-05-17T07:37:51.387Z,4.07
2023-05-17T07:40:19.084Z,3.10
2023-05-17T07:42:46.685Z,3.55
2023-05-17T07:45:14.207Z,2.63
2023-05-17T07:47:41.857Z,3.60
2023-05-17T07:50:10.244Z,3.30
2023-05-17T07:52:37.907Z,3.25
2023-05-17T07:55:06.213Z,3.38
2023-05-17T07:57:33.783Z,2.72
2023-05-17T08:00:01.362Z,4.40
2023-05-17T08:02:39.979Z,4.03
2023-05-17T08:05:08.133Z,3.97
2023-05-17T08:07:35.540Z,3.78
2023-05-17T08:10:03.516Z,3.50
2023-05-17T08:12:31.069Z,4.03
2023-05-17T08:14:58.845Z,3.47
2023-05-17T08:17:26.418Z,3.10
2023-05-17T08:19:53.866Z,4.15
2023-05-17T08:22:21.596Z,3.20
2023-05-17T08:24:49.284Z,3.40
2023-05-17T08:27:16.846Z,3.05
2023-05-17T08:29:44.296Z,3.67
2023-05-17T08:32:11.710Z,3.45
2023-05-17T08:34:39.312Z,2.92
2023-05-17T08:37:07.452Z,3.53
2023-05-17T08:39:35.367Z,3.20
2023-05-17T08:42:06.576Z,4.13
2023-05-17T08:44:35.832Z,4.95
2023-05-17T08:47:05.900Z,4.13
2023-05-17T08:49:34.030Z,5.22
2023-05-17T08:52:09.065Z,4.67
2023-05-17T08:54:37.265Z,4.10
2023-05-17T08:57:06.621Z,4.55
2023-05-17T08:59:34.657Z,3.95
2023-05-17T09:02:02.878Z,4.07
2023-05-17T09:04:30.836Z,3.63
2023-05-17T09:06:58.493Z,3.13
2023-05-17T09:09:27.108Z,3.25
2023-05-17T09:11:54.893Z,3.63
2023-05-17T09:14:22.462Z,2.80
2023-05-17T09:16:57.495Z,3.72
2023-05-17T09:19:25.046Z,3.10
2023-05-17T09:21:54.719Z,4.28
2023-05-17T09:24:30.580Z,3.50
2023-05-17T09:27:03.109Z,4.05
2023-05-17T09:29:32.096Z,3.67
2023-05-17T09:32:20.357Z,3.50
2023-05-17T09:34:48.585Z,3.25
2023-05-17T09:37:18.380Z,3.58
2023-05-17T09:39:47.993Z,3.55
2023-05-17T09:42:16.325Z,3.25
2023-05-17T09:44:52.765Z,3.85
2023-05-17T09:47:28.175Z,2.55
2023-05-17T09:50:01.988Z,5.55
2023-05-17T09:52:34.496Z,4.38
2023-05-17T09:55:02.297Z,4.18
2023-05-17T09:57:38.367Z,3.28
2023-05-17T10:00:11.862Z,4.13
2023-05-17T10:02:45.631Z,3.78
2023-05-17T10:05:14.165Z,3.55
2023-05-17T10:07:41.966Z,4.47
2023-05-17T10:10:10.473Z,3.72
2023-05-17T10:12:39.999Z,3.40
2023-05-17T10:15:10.605Z,3.90
2023-05-17T10:17:42.880Z,4.10
2023-05-17T10:20:14.041Z,4.05
2023-05-17T10:22:42.040Z,4.18
2023-05-17T10:25:10.095Z,4.47
2023-05-17T10:27:37.746Z,5.50
2023-05-17T10:30:07.619Z,3.35
2023-05-17T10:32:36.076Z,4.25
2023-05-17T10:35:11.351Z,5.22
2023-05-17T10:37:41.096Z,4.22
2023-05-17T10:40:13.305Z,3.80
2023-05-17T10:42:51.189Z,4.63
2023-05-17T10:45:24.922Z,4.15
2023-05-17T10:47:53.541Z,3.92
2023-05-17T10:50:23.998Z,4.88
2023-05-17T10:52:55.228Z,4.15
2023-05-17T10:55:34.379Z,4.57
2023-05-17T10:58:17.630Z,5.35
2023-05-17T11:00:55.292Z,5.07
2023-05-17T11:03:28.855Z,5.18
2023-05-17T11:06:24.561Z,4.38
2023-05-17T11:09:13.241Z,4.32
2023-05-17T11:12:08.068Z,4.20
2023-05-17T11:14:44.686Z,3.80
2023-05-17T11:17:27.422Z,5.15
2023-05-17T11:19:58.627Z,3.45
2023-05-17T11:22:27.156Z,3.05
2023-05-17T11:24:57.282Z,3.97
2023-05-17T11:27:29.020Z,4.43
2023-05-17T11:29:57.870Z,4.38
2023-05-17T11:32:31.201Z,4.13
2023-05-17T11:35:02.113Z,4.88
2023-05-17T11:37:30.741Z,4.57
2023-05-17T11:40:09.847Z,5.65
2023-05-17T11:42:38.915Z,3.72
2023-05-17T11:45:08.438Z,5.82
2023-05-17T11:47:40.152Z,4.43
2023-05-17T11:50:08.813Z,5.32
2023-05-17T11:52:36.503Z,5.10
2023-05-17T11:55:05.116Z,5.07
2023-05-17T11:57:32.854Z,4.40
2023-05-17T12:00:03.781Z,4.38
2023-05-17T12:02:39.873Z,4.43
2023-05-17T12:05:08.821Z,5.68
2023-05-17T12:10:05.884Z,4.80
2023-05-17T12:15:00.954Z,5.25
2023-05-17T12:17:36.641Z,4.45
2023-05-17T12:20:08.803Z,4.05
2023-05-17T12:22:55.569Z,3.50
2023-05-17T12:25:28.806Z,3.55
2023-05-17T12:28:21.511Z,3.50
2023-05-17T12:30:53.923Z,4.30
2023-05-17T12:33:21.557Z,3.83
2023-05-17T12:35:49.664Z,3.58
2023-05-17T12:38:18.842Z,5.65
2023-05-17T12:40:46.895Z,5.75
2023-05-17T12:43:14.469Z,5.20
2023-05-17T12:45:42.108Z,4.40
2023-05-17T12:48:10.024Z,6.40
2023-05-17T12:50:38.752Z,5.20
2023-05-17T12:53:09.465Z,6.18
2023-05-17T12:55:37.970Z,5.65
2023-05-17T12:58:05.712Z,5.40
2023-05-17T13:00:33.498Z,5.32
2023-05-17T13:03:01.300Z,5.93
2023-05-17T13:05:29.083Z,6.07
2023-05-17T13:07:56.676Z,6.18
2023-05-17T13:10:27.004Z,6.10
2023-05-17T13:12:59.893Z,5.95
2023-05-17T13:15:32.658Z,5.32
2023-05-17T13:18:11.596Z,5.85
2023-05-17T13:23:06.685Z,5.78
2023-05-17T13:25:36.031Z,5.72
2023-05-17T13:28:03.735Z,5.78
2023-05-17T13:30:31.374Z,5.20
2023-05-17T13:32:59.013Z,6.20
2023-05-17T13:35:26.715Z,5.30
2023-05-17T13:37:54.126Z,6.95
2023-05-17T13:40:21.775Z,5.97
2023-05-17T13:42:49.320Z,6.80
2023-05-17T13:45:17.054Z,7.13
2023-05-17T13:47:45.084Z,6.93
2023-05-17T13:50:15.349Z,7.43
2023-05-17T13:52:43.946Z,5.68
2023-05-17T13:55:11.599Z,5.25
2023-05-17T13:57:39.209Z,5.00
2023-05-17T14:00:07.965Z,2.92
2023-05-17T14:02:36.683Z,3.90
2023-05-17T14:05:06.666Z,3.00
2023-05-17T14:07:34.179Z,3.35
2023-05-17T14:10:01.810Z,3.13
2023-05-17T14:12:29.354Z,3.80
2023-05-17T14:14:56.770Z,3.22
2023-05-17T14:17:25.647Z,5.57
2023-05-17T14:19:53.347Z,5.40
2023-05-17T14:22:21.319Z,4.97
2023-05-17T14:24:48.894Z,6.00
2023-05-17T14:27:16.545Z,5.45
2023-05-17T14:29:44.127Z,4.78
2023-05-17T14:32:13.486Z,5.72
2023-05-17T14:34:41.122Z,5.22
2023-05-17T14:37:08.872Z,6.50
2023-05-17T14:39:36.431Z,6.18
2023-05-17T14:42:04.564Z,5.50
2023-05-17T14:44:34.081Z,5.63
2023-05-17T14:47:01.631Z,5.85
2023-05-17T14:49:29.138Z,6.38
2023-05-17T14:51:56.706Z,7.07
2023-05-17T14:54:25.697Z,6.95
2023-05-17T14:56:53.333Z,6.90
2023-05-17T14:59:20.838Z,4.90
2023-05-17T15:01:48.358Z,9.05
2023-05-17T15:04:16.192Z,8.23
2023-05-17T15:06:43.984Z,10.00
2023-05-17T15:09:13.560Z,8.73
2023-05-17T15:11:41.446Z,14.25
2023-05-17T15:14:09.351Z,9.95
2023-05-17T15:16:37.935Z,8.90
2023-05-17T15:19:06.024Z,6.78
2023-05-17T15:21:33.689Z,7.30
2023-05-17T15:24:01.123Z,7.35
2023-05-17T15:26:28.653Z,9.88
2023-05-17T15:28:57.159Z,7.15
2023-05-17T15:31:24.552Z,10.47
2023-05-17T15:33:52.215Z,11.20
2023-05-17T15:36:19.688Z,7.95
2023-05-17T15:38:47.191Z,9.85
2023-05-17T15:41:16.924Z,7.35
2023-05-17T15:43:45.436Z,5.05
2023-05-17T15:46:13.197Z,4.18
2023-05-17T15:48:41.305Z,3.35
2023-05-17T15:51:09.503Z,2.78
2023-05-17T15:53:37.354Z,2.10
2023-05-17T15:56:05.202Z,3.95
2023-05-17T15:58:33.631Z,2.95
2023-05-17T16:01:05.482Z,2.25
2023-05-17T16:03:33.661Z,3.03
2023-05-17T16:06:03.548Z,3.13
2023-05-17T16:08:31.097Z,2.15
2023-05-17T16:11:00.339Z,2.83
2023-05-17T16:13:30.300Z,3.17
2023-05-17T16:15:59.391Z,2.60
2023-05-17T16:21:03.754Z,4.68
2023-05-17T16:23:31.869Z,2.72
2023-05-17T16:25:59.438Z,2.70
2023-05-17T16:28:26.942Z,6.63
2023-05-17T16:30:54.617Z,9.35
2023-05-17T16:33:22.402Z,8.15
2023-05-17T16:35:50.083Z,5.80
2023-05-17T16:38:17.647Z,8.02
2023-05-17T16:40:45.428Z,13.52
2023-05-17T16:43:15.378Z,15.85
2023-05-17T16:45:46.408Z,13.15
2023-05-17T16:48:15.077Z,15.68
2023-05-17T16:50:42.956Z,15.65
2023-05-17T16:53:11.367Z,10.55
2023-05-17T16:55:38.924Z,8.63
2023-05-17T16:58:06.813Z,10.43
2023-05-17T17:00:34.598Z,11.32
2023-05-17T17:03:02.324Z,7.95
2023-05-17T17:05:29.974Z,7.55
2023-05-17T17:07:57.852Z,6.60
2023-05-17T17:10:26.006Z,7.75
2023-05-17T17:12:53.656Z,6.00
2023-05-17T17:15:22.360Z,5.95
2023-05-17T17:17:49.929Z,9.45
2023-05-17T17:20:17.704Z,7.53
2023-05-17T17:22:45.909Z,7.63
2023-05-17T17:25:13.597Z,6.30
2023-05-17T17:27:41.570Z,6.93
2023-05-17T17:30:09.694Z,6.15
2023-05-17T17:32:37.467Z,6.93
2023-05-17T17:35:06.028Z,14.07
2023-05-17T17:37:33.667Z,12.60
2023-05-17T17:40:01.722Z,13.65
2023-05-17T17:42:31.412Z,12.50
2023-05-17T17:44:59.669Z,6.65
2023-05-17T17:47:27.297Z,4.35
2023-05-17T17:49:54.753Z,5.15
2023-05-17T17:52:22.381Z,6.03
2023-05-17T17:54:50.091Z,5.05
2023-05-17T17:57:18.812Z,4.50
2023-05-17T17:59:46.590Z,4.90
2023-05-17T18:02:14.148Z,5.72
2023-05-17T18:04:41.970Z,4.97
2023-05-17T18:07:11.785Z,6.63
2023-05-17T18:09:39.347Z,5.85
2023-05-17T18:12:07.810Z,6.38
2023-05-17T18:14:35.463Z,6.47
2023-05-17T18:17:03.328Z,10.13
2023-05-17T18:19:31.055Z,7.93
2023-05-17T18:21:58.509Z,8.32
2023-05-17T18:24:26.121Z,10.68
2023-05-17T18:26:53.806Z,8.05
2023-05-17T18:29:21.372Z,15.57
2023-05-17T18:31:49.423Z,6.68
2023-05-17T18:34:18.047Z,7.38
2023-05-17T18:36:45.755Z,4.47
2023-05-17T18:39:13.563Z,5.30
2023-05-17T18:41:41.178Z,4.57
2023-05-17T18:44:08.808Z,6.75
2023-05-17T18:46:36.595Z,4.38
2023-05-17T18:49:04.885Z,3.88
2023-05-17T18:51:32.894Z,4.68
2023-05-17T18:54:00.504Z,4.85
2023-05-17T18:56:29.787Z,6.75
2023-05-17T18:58:57.691Z,4.80
2023-05-17T19:01:26.718Z,6.03
2023-05-17T19:06:24.499Z,10.07
2023-05-17T19:08:52.143Z,7.68
2023-05-17T19:11:21.932Z,7.32
2023-05-17T19:13:49.974Z,7.13
2023-05-17T19:16:17.621Z,7.60
2023-05-17T19:18:45.232Z,4.90
2023-05-17T19:21:12.902Z,8.55
2023-05-17T19:23:40.625Z,5.13
2023-05-17T19:26:08.423Z,6.13
2023-05-17T19:28:38.891Z,7.43
2023-05-17T19:31:07.691Z,9.35
2023-05-17T19:33:37.036Z,9.18
2023-05-17T19:36:04.808Z,6.40
2023-05-17T19:38:32.882Z,6.15
2023-05-17T19:41:01.269Z,5.28
2023-05-17T19:43:28.937Z,4.53
2023-05-17T19:45:56.430Z,6.75
2023-05-17T19:48:24.291Z,5.28
2023-05-17T19:50:54.881Z,5.18
2023-05-17T19:53:24.101Z,4.55
2023-05-17T19:55:51.865Z,5.28
2023-05-17T19:58:19.598Z,4.88
2023-05-17T20:00:47.047Z,6.32
2023-05-17T20:03:14.921Z,5.63
2023-05-17T20:05:42.694Z,5.90
2023-05-17T20:08:10.345Z,6.65
2023-05-17T20:10:37.956Z,5.00
2023-05-17T20:13:05.578Z,5.90
2023-05-17T20:15:33.217Z,5.20
2023-05-17T20:18:00.941Z,4.90
2023-05-17T20:20:28.855Z,9.15
2023-05-17T20:22:56.736Z,8.27
2023-05-17T20:25:24.117Z,8.30
2023-05-17T20:27:51.936Z,8.10
2023-05-17T20:30:19.430Z,10.98
2023-05-17T20:32:47.124Z,16.70
2023-05-17T20:35:14.936Z,13.57
2023-05-17T20:37:42.647Z,14.80
2023-05-17T20:40:10.662Z,18.77
2023-05-17T20:42:39.812Z,13.98
2023-05-17T20:47:36.166Z,17.55
2023-05-17T20:50:05.560Z,17.02
2023-05-17T20:52:39.298Z,13.95
2023-05-17T20:55:10.803Z,17.15
2023-05-17T20:57:38.246Z,18.05
2023-05-17T21:00:10.937Z,19.88
2023-05-17T21:02:39.026Z,14.15
2023-05-17T21:05:09.551Z,15.70
2023-05-17T21:07:40.143Z,15.45
2023-05-17T21:10:09.142Z,16.98
2023-05-17T21:15:16.516Z,12.88
2023-05-17T21:17:44.813Z,14.20
2023-05-17T21:20:13.054Z,16.25
2023-05-17T21:22:40.628Z,16.70
2023-05-17T21:25:09.117Z,14.73
2023-05-17T21:27:36.733Z,15.35
2023-05-17T21:30:04.838Z,16.98
2023-05-17T21:32:32.435Z,22.55
2023-05-17T21:35:00.304Z,20.58
2023-05-17T21:37:27.886Z,15.50
2023-05-17T21:39:55.359Z,19.85
2023-05-17T21:42:23.298Z,18.17
2023-05-17T21:44:50.820Z,15.75
2023-05-17T21:47:18.243Z,16.77
2023-05-17T21:49:45.732Z,18.17
2023-05-17T21:52:13.398Z,14.32
2023-05-17T21:54:41.121Z,11.60
2023-05-17T21:57:08.833Z,19.35
2023-05-17T21:59:36.347Z,18.63
2023-05-17T22:02:04.100Z,19.10
2023-05-17T22:04:31.633Z,19.50
2023-05-17T22:06:59.231Z,14.70
2023-05-17T22:09:27.042Z,18.58
2023-05-17T22:11:58.120Z,16.02
2023-05-17T22:14:32.727Z,19.58
2023-05-17T22:17:00.404Z,16.88
2023-05-17T22:19:29.693Z,13.70
2023-05-17T22:21:57.370Z,15.27
2023-05-17T22:24:25.134Z,11.30
2023-05-17T22:26:52.575Z,13.48
2023-05-17T22:29:20.313Z,12.15
2023-05-17T22:31:49.521Z,9.57
2023-05-17T22:36:44.624Z,6.47
2023-05-17T22:39:12.236Z,8.23
2023-05-17T22:41:39.988Z,8.50
2023-05-17T22:44:07.682Z,13.88
2023-05-17T22:46:37.220Z,14.70
2023-05-17T22:49:04.734Z,16.85
2023-05-17T22:51:34.492Z,18.33
2023-05-17T22:54:02.745Z,13.80
2023-05-17T22:56:30.650Z,14.60
2023-05-17T22:58:58.651Z,14.50
2023-05-17T23:01:26.388Z,15.30
2023-05-17T23:03:53.996Z,14.50
2023-05-17T23:06:21.569Z,16.55
2023-05-17T23:08:49.346Z,17.83
2023-05-17T23:11:17.403Z,14.48
2023-05-17T23:13:45.231Z,15.75
2023-05-17T23:16:13.417Z,13.25
2023-05-17T23:18:41.189Z,12.93
2023-05-17T23:21:09.120Z,12.68
2023-05-17T23:23:37.417Z,22.02
2023-05-17T23:26:05.427Z,20.70
2023-05-17T23:28:33.135Z,13.80
2023-05-17T23:31:05.280Z,13.55
2023-05-17T23:33:32.969Z,12.48
2023-05-17T23:36:00.690Z,11.55
2023-05-17T23:38:28.346Z,14.98
2023-05-17T23:40:57.571Z,19.50
2023-05-17T23:45:52.916Z,12.38
2023-05-17T23:48:20.577Z,16.40
2023-05-17T23:50:48.206Z,17.52
2023-05-17T23:53:17.883Z,16.40
2023-05-17T23:55:46.058Z,14.70
2023-05-17T23:58:13.636Z,15.35
